Vidfoss — V2QK4 — position and weather

sailwx.info

Track history (hours):
 
Tides and Currents Weather Stations Pressure Air Temp Water Temp Dewpoint Dewpoint Depression Visibility Wind Speed Wind Dir Waves Ship Positions

Vidfoss

Last reported at 2017-Feb-27 06:33 UTC. Time now 2017-Feb-27 06:51 UTC.
Position N 52°28' E 004°40'.

Length 93 m; draft 5.3 m.

Type: Cargo ship. MMSI: 305846000.

Date/timePositionNaut miles runAvg speedWind from/ knotsBaromVisibWave heightAir tempDewpointWater temp
2017-Feb-27 06:33N 52°28' E 004°40'0 0.0
2017-Feb-27 05:31N 52°28' E 004°40'0 0.0
2017-Feb-27 04:32N 52°28' E 004°40'0 0.0
2017-Feb-27 03:32N 52°28' E 004°40'0 0.0
2017-Feb-27 02:33N 52°28' E 004°40'0 0.0
2017-Feb-27 01:31N 52°28' E 004°40'0 0.0
2017-Feb-27 00:33N 52°28' E 004°40'2 2.5
2017-Feb-26 23:33N 52°28' E 004°36'3 3.0
2017-Feb-26 22:33N 52°28' E 004°31'5 5.1
2017-Feb-26 21:33N 52°33' E 004°27'9 9.2
2017-Feb-26 20:33N 52°42' E 004°29'354 8.4
2017-Feb-25 02:33N 58°34' E 005°12'1111.1
2017-Feb-25 01:33N 58°45' E 005°14'1211.8
2017-Feb-25 00:33N 58°57' E 005°17'1212.0
2017-Feb-24 23:33N 59°09' E 005°20'1211.9
2017-Feb-24 22:33N 59°21' E 005°19'1110.9
2017-Feb-24 21:33N 59°31' E 005°12'1212.3
2017-Feb-24 20:33N 59°42' E 005°25'1111.1
2017-Feb-24 19:32N 59°53' E 005°32'1110.9
2017-Feb-24 18:33N 60°01' E 005°19'1111.0
2017-Feb-24 17:32N 60°12' E 005°12'10 9.9
2017-Feb-24 16:33N 60°21' E 005°10'1110.6
2017-Feb-24 15:33N 60°30' E 004°58'1211.7
2017-Feb-24 14:33N 60°41' E 004°49'1110.7
2017-Feb-24 13:33N 60°52' E 004°46'1211.9
2017-Feb-24 12:33N 61°04' E 004°44'1111.4
2017-Feb-24 11:33N 61°15' E 004°44'1211.7
2017-Feb-24 10:33N 61°26' E 004°53'1010.4
2017-Feb-24 09:33N 61°36' E 004°58'1111.1
2017-Feb-24 08:33N 61°47' E 005°04'7 7.3
2017-Feb-24 07:33N 61°54' E 005°10'3 2.6
2017-Feb-24 06:33N 61°56' E 005°07'0 0.0
2017-Feb-24 05:33N 61°56' E 005°07'0 0.0
2017-Feb-24 04:33N 61°56' E 005°07'2 1.6
2017-Feb-24 03:33N 61°57' E 005°09'7 7.1
2017-Feb-24 02:33N 62°04' E 005°07'9 9.2
2017-Feb-24 01:33N 62°14' E 005°06'9 9.0
2017-Feb-24 00:33N 62°11' E 005°24'1111.0
2017-Feb-23 23:33N 62°12' E 005°47'1111.1
2017-Feb-23 22:33N 62°19' E 006°05'9 9.1
2017-Feb-23 21:33N 62°29' E 006°06'1 0.7
2017-Feb-23 20:32N 62°28' E 006°08'6 6.1
2017-Feb-23 19:33N 62°29' E 006°20'0 0.0
2017-Feb-23 18:33N 62°29' E 006°20'0 0.0
2017-Feb-23 17:33N 62°29' E 006°20'0 0.0
2017-Feb-23 16:33N 62°29' E 006°20'2 2.3
2017-Feb-23 15:33N 62°30' E 006°24'2 2.5
2017-Feb-23 14:33N 62°29' E 006°19'1 0.7
2017-Feb-23 13:33N 62°29' E 006°18'0 0.0
2017-Feb-23 12:33N 62°29' E 006°18'5 5.3
2017-Feb-23 11:33N 62°29' E 006°07'1 0.8
2017-Feb-23 10:33N 62°28' E 006°08'0 0.0
2017-Feb-23 09:33N 62°28' E 006°08'0 0.0
2017-Feb-23 08:33N 62°28' E 006°08'0 0.0
2017-Feb-23 07:33N 62°28' E 006°08'0 0.0
2017-Feb-23 06:32N 62°28' E 006°08'2 1.6
2017-Feb-23 05:33N 62°28' E 006°05'1111.1
2017-Feb-23 04:33N 62°37' E 006°19'1212.3
2017-Feb-23 03:33N 62°47' E 006°35'1212.2
2017-Feb-23 02:33N 62°57' E 006°49'1111.3
2017-Feb-23 01:33N 63°02' E 007°12'1211.9
2017-Feb-23 00:33N 63°07' E 007°35'5 4.6
2017-Feb-22 23:33N 63°07' E 007°46'5 4.6
2017-Feb-22 22:33N 63°12' E 007°50'1312.4
2017-Feb-22 21:32N 63°18' E 008°14'5 4.8
2017-Feb-22 20:33N 63°23' E 008°12'0 0.4
2017-Feb-22 19:33N 63°23' E 008°13'7 7.3
2017-Feb-22 18:33N 63°24' E 008°29'1212.2
2017-Feb-22 17:33N 63°28' E 008°55'1212.0
2017-Feb-22 16:33N 63°33' E 009°19'1211.8
2017-Feb-22 15:33N 63°44' E 009°32'1212.1
2017-Feb-22 14:33N 63°54' E 009°46'1110.8
2017-Feb-22 13:33N 64°04' E 009°54'1212.0
2017-Feb-22 12:33N 64°13' E 010°13'1111.5
2017-Feb-22 11:33N 64°23' E 010°25'1111.4
2017-Feb-22 10:33N 64°34' E 010°35'1212.0
2017-Feb-22 09:33N 64°43' E 010°54'1212.0
2017-Feb-22 08:33N 64°51' E 011°14'1211.7
2017-Feb-22 07:33N 64°59' E 011°35'1211.8
2017-Feb-22 06:33N 65°09' E 011°50'1211.8
2017-Feb-22 05:33N 65°20' E 012°01'9 9.1
2017-Feb-22 04:33N 65°29' E 011°57'1212.0
2017-Feb-22 03:33N 65°39' E 012°13'1212.2
2017-Feb-22 02:33N 65°50' E 012°22'1111.4
2017-Feb-22 01:33N 66°01' E 012°32'1212.2
2017-Feb-22 00:33N 66°11' E 012°50'1211.9
2017-Feb-21 23:33N 66°22' E 012°58'1110.8
2017-Feb-21 22:33N 66°33' E 013°01'1111.2
2017-Feb-21 21:33N 66°43' E 013°11'1111.3
2017-Feb-21 20:33N 66°53' E 013°24'1010.4
2017-Feb-21 19:33N 67°01' E 013°43'1111.4
2017-Feb-21 18:33N 67°09' E 014°02'1211.7
2017-Feb-21 17:33N 67°19' E 014°18'1110.9
2017-Feb-21 16:33N 67°30' E 014°23'1212.2
2017-Feb-21 15:33N 67°42' E 014°17'1211.8
2017-Feb-21 14:33N 67°53' E 014°29'1212.0
2017-Feb-21 13:33N 68°04' E 014°43'1212.3
2017-Feb-21 12:33N 68°15' E 014°57'1211.7
2017-Feb-21 11:33N 68°26' E 015°09'7 7.1
2017-Feb-21 10:33N 68°29' E 014°52'2 1.5
2017-Feb-21 09:32N 68°30' E 014°48'0 0.0
2017-Feb-21 08:33N 68°30' E 014°48'0 0.0
2017-Feb-21 07:33N 68°30' E 014°48'0 0.0
2017-Feb-21 06:33N 68°30' E 014°48'4 3.8
2017-Feb-21 05:32N 68°30' E 014°59'1212.1
2017-Feb-21 04:33N 68°38' E 015°22'1211.6
2017-Feb-21 03:33N 68°50' E 015°27'8 8.4
2017-Feb-21 02:33N 68°57' E 015°37'10 9.5
2017-Feb-21 01:33N 68°58' E 016°03'1211.7
2017-Feb-21 00:33N 68°52' E 016°32'1211.9
2017-Feb-20 23:33N 68°58' E 017°01'1211.9
2017-Feb-20 22:33N 69°06' E 017°26'1212.2
2017-Feb-20 21:33N 69°10' E 017°58'10 9.8
2017-Feb-20 20:33N 69°20' E 018°02'1110.7
2017-Feb-20 19:33N 69°30' E 018°15'1211.7
2017-Feb-20 18:33N 69°34' E 018°46'5 5.4
2017-Feb-20 17:33N 69°38' E 018°57'0 0.0
2017-Feb-20 16:33N 69°38' E 018°57'0 0.0
2017-Feb-20 15:33N 69°38' E 018°57'0 0.0
2017-Feb-20 14:33N 69°38' E 018°57'0 0.0
2017-Feb-20 13:33N 69°38' E 018°57'0 0.0
2017-Feb-20 12:33N 69°38' E 018°57'0 0.0
2017-Feb-20 11:33N 69°38' E 018°57'0 0.0
2017-Feb-20 10:33N 69°38' E 018°57'0 0.0
2017-Feb-20 09:33N 69°38' E 018°57'0 0.0
2017-Feb-20 08:33N 69°38' E 018°57'0 0.0
2017-Feb-20 07:33N 69°38' E 018°57'0 0.0
2017-Feb-20 06:33N 69°38' E 018°57'0 0.0
2017-Feb-20 05:33N 69°38' E 018°57'0 0.0
2017-Feb-20 04:33N 69°38' E 018°57'0 0.0
2017-Feb-20 03:33N 69°38' E 018°57'0 0.0
2017-Feb-20 02:33N 69°38' E 018°57'0 0.0
2017-Feb-20 01:33N 69°38' E 018°57'0 0.0
2017-Feb-20 00:33N 69°38' E 018°57'0 0.0
2017-Feb-19 23:33N 69°38' E 018°57'0 0.0
2017-Feb-19 22:33N 69°38' E 018°57'0 0.0
2017-Feb-19 21:33N 69°38' E 018°57'2 1.9
2017-Feb-19 20:33N 69°39' E 018°58'0 0.0
2017-Feb-19 19:33N 69°39' E 018°58'0 0.0
2017-Feb-19 18:33N 69°39' E 018°58'3 2.8
2017-Feb-19 17:33N 69°42' E 019°02'1010.3
2017-Feb-19 16:33N 69°49' E 019°25'1211.9
2017-Feb-19 15:33N 69°54' E 019°56'1111.5
2017-Feb-19 14:33N 70°00' E 020°23'1211.8
2017-Feb-19 13:33N 70°05' E 020°56'1211.6
2017-Feb-19 12:33N 70°15' E 021°12'1212.0
2017-Feb-19 11:33N 70°23' E 021°38'1212.1
2017-Feb-19 10:33N 70°27' E 022°13'1212.3
2017-Feb-19 09:33N 70°30' E 022°48'1211.7
2017-Feb-19 08:33N 70°37' E 023°16'1111.3
2017-Feb-19 07:33N 70°46' E 023°39'1211.5
2017-Feb-19 06:32N 70°54' E 024°04'1211.7
2017-Feb-19 05:33N 71°02' E 024°30'1211.5
2017-Feb-19 04:33N 70°60' E 025°04'1111.0
2017-Feb-19 03:33N 70°55' E 025°35'1212.2
2017-Feb-19 02:33N 70°58' E 026°12'1212.0
2017-Feb-19 01:33N 71°03' E 026°46'1111.5
2017-Feb-19 00:33N 71°07' E 027°19'1211.8
2017-Feb-18 23:33N 71°10' E 027°54'9 9.4
2017-Feb-18 22:33N 71°06' E 028°21'8 7.5
2017-Feb-18 21:33N 71°02' E 028°39'7 7.4
2017-Feb-18 20:33N 70°58' E 028°58'6 6.4
2017-Feb-18 19:33N 70°54' E 029°14'7 7.0
2017-Feb-18 18:33N 70°50' E 029°31'8 8.4
2017-Feb-18 17:33N 70°44' E 029°50'7 6.2
2017-Feb-18 16:30N 70°38' E 029°43'0 0.0
2017-Feb-18 15:31N 70°38' E 029°43'0 0.0
2017-Feb-18 14:31N 70°38' E 029°43'0 0.0
2017-Feb-18 13:32N 70°38' E 029°43'0 0.0
2017-Feb-18 12:33N 70°38' E 029°43'0 0.0
2017-Feb-18 11:33N 70°38' E 029°43'0 0.0
2017-Feb-18 10:28N 70°38' E 029°43'0 0.0
2017-Feb-18 09:29N 70°38' E 029°43'0 0.0
2017-Feb-18 08:29N 70°38' E 029°43'0 0.0
2017-Feb-18 07:30N 70°38' E 029°43'0 0.0
2017-Feb-18 06:31N 70°38' E 029°43'0 0.0
2017-Feb-18 05:31N 70°38' E 029°43'0 0.0
2017-Feb-18 04:32N 70°38' E 029°43'0 0.0
2017-Feb-18 03:33N 70°38' E 029°43'0 0.0
2017-Feb-18 02:33N 70°38' E 029°43'0 0.0
2017-Feb-18 01:28N 70°38' E 029°43'0 0.0
2017-Feb-18 00:29N 70°38' E 029°43'0 0.0
2017-Feb-17 23:29N 70°38' E 029°43'0 0.0
2017-Feb-17 22:33N 70°38' E 029°43'2 1.7
2017-Feb-17 21:33N 70°39' E 029°47'1110.6
2017-Feb-17 20:33N 70°49' E 029°37'1212.3
2017-Feb-17 19:33N 70°57' E 029°10'1212.4
2017-Feb-17 18:33N 71°04' E 028°38'1212.5
2017-Feb-17 17:33N 71°10' E 028°04'1212.1
2017-Feb-17 16:33N 71°10' E 027°26'1211.6
2017-Feb-17 15:33N 71°06' E 026°53'1211.7
2017-Feb-17 14:33N 71°01' E 026°21'1211.8
2017-Feb-17 13:33N 70°56' E 025°48'1111.1
2017-Feb-17 12:33N 70°59' E 025°16'1211.8
2017-Feb-17 11:33N 71°01' E 024°40'1111.0
2017-Feb-17 10:33N 70°55' E 024°12'1212.4
2017-Feb-17 09:33N 70°47' E 023°44'1211.9
2017-Feb-17 08:32N 70°38' E 023°18'1212.5
2017-Feb-17 07:33N 70°30' E 022°51'  
Track history (hours):
 
Tides and Currents Weather Stations Pressure Air Temp Water Temp Dewpoint Dewpoint Depression Visibility Wind Speed Wind Dir Waves Ship Positions

Vidfoss

Last reported at 2017-Feb-27 06:33 UTC. Time now 2017-Feb-27 06:51 UTC.
Position N 52°28' E 004°40'.

Length 93 m; draft 5.3 m.

Type: Cargo ship. MMSI: 305846000.

Date/timePositionNaut miles runAvg speedWind from/ knotsBaromVisibWave heightAir tempDewpointWater temp
2017-Feb-27 06:33N 52°28' E 004°40'0 0.0
2017-Feb-27 05:31N 52°28' E 004°40'0 0.0
2017-Feb-27 04:32N 52°28' E 004°40'0 0.0
2017-Feb-27 03:32N 52°28' E 004°40'0 0.0
2017-Feb-27 02:33N 52°28' E 004°40'0 0.0
2017-Feb-27 01:31N 52°28' E 004°40'0 0.0
2017-Feb-27 00:33N 52°28' E 004°40'2 2.5
2017-Feb-26 23:33N 52°28' E 004°36'3 3.0
2017-Feb-26 22:33N 52°28' E 004°31'5 5.1
2017-Feb-26 21:33N 52°33' E 004°27'9 9.2
2017-Feb-26 20:33N 52°42' E 004°29'354 8.4
2017-Feb-25 02:33N 58°34' E 005°12'1111.1
2017-Feb-25 01:33N 58°45' E 005°14'1211.8
2017-Feb-25 00:33N 58°57' E 005°17'1212.0
2017-Feb-24 23:33N 59°09' E 005°20'1211.9
2017-Feb-24 22:33N 59°21' E 005°19'1110.9
2017-Feb-24 21:33N 59°31' E 005°12'1212.3
2017-Feb-24 20:33N 59°42' E 005°25'1111.1
2017-Feb-24 19:32N 59°53' E 005°32'1110.9
2017-Feb-24 18:33N 60°01' E 005°19'1111.0
2017-Feb-24 17:32N 60°12' E 005°12'10 9.9
2017-Feb-24 16:33N 60°21' E 005°10'1110.6
2017-Feb-24 15:33N 60°30' E 004°58'1211.7
2017-Feb-24 14:33N 60°41' E 004°49'1110.7
2017-Feb-24 13:33N 60°52' E 004°46'1211.9
2017-Feb-24 12:33N 61°04' E 004°44'1111.4
2017-Feb-24 11:33N 61°15' E 004°44'1211.7
2017-Feb-24 10:33N 61°26' E 004°53'1010.4
2017-Feb-24 09:33N 61°36' E 004°58'1111.1
2017-Feb-24 08:33N 61°47' E 005°04'7 7.3
2017-Feb-24 07:33N 61°54' E 005°10'3 2.6
2017-Feb-24 06:33N 61°56' E 005°07'0 0.0
2017-Feb-24 05:33N 61°56' E 005°07'0 0.0
2017-Feb-24 04:33N 61°56' E 005°07'2 1.6
2017-Feb-24 03:33N 61°57' E 005°09'7 7.1
2017-Feb-24 02:33N 62°04' E 005°07'9 9.2
2017-Feb-24 01:33N 62°14' E 005°06'9 9.0
2017-Feb-24 00:33N 62°11' E 005°24'1111.0
2017-Feb-23 23:33N 62°12' E 005°47'1111.1
2017-Feb-23 22:33N 62°19' E 006°05'9 9.1
2017-Feb-23 21:33N 62°29' E 006°06'1 0.7
2017-Feb-23 20:32N 62°28' E 006°08'6 6.1
2017-Feb-23 19:33N 62°29' E 006°20'0 0.0
2017-Feb-23 18:33N 62°29' E 006°20'0 0.0
2017-Feb-23 17:33N 62°29' E 006°20'0 0.0
2017-Feb-23 16:33N 62°29' E 006°20'2 2.3
2017-Feb-23 15:33N 62°30' E 006°24'2 2.5
2017-Feb-23 14:33N 62°29' E 006°19'1 0.7
2017-Feb-23 13:33N 62°29' E 006°18'0 0.0
2017-Feb-23 12:33N 62°29' E 006°18'5 5.3
2017-Feb-23 11:33N 62°29' E 006°07'1 0.8
2017-Feb-23 10:33N 62°28' E 006°08'0 0.0
2017-Feb-23 09:33N 62°28' E 006°08'0 0.0
2017-Feb-23 08:33N 62°28' E 006°08'0 0.0
2017-Feb-23 07:33N 62°28' E 006°08'0 0.0
2017-Feb-23 06:32N 62°28' E 006°08'2 1.6
2017-Feb-23 05:33N 62°28' E 006°05'1111.1
2017-Feb-23 04:33N 62°37' E 006°19'1212.3
2017-Feb-23 03:33N 62°47' E 006°35'1212.2
2017-Feb-23 02:33N 62°57' E 006°49'1111.3
2017-Feb-23 01:33N 63°02' E 007°12'1211.9
2017-Feb-23 00:33N 63°07' E 007°35'5 4.6
2017-Feb-22 23:33N 63°07' E 007°46'5 4.6
2017-Feb-22 22:33N 63°12' E 007°50'1312.4
2017-Feb-22 21:32N 63°18' E 008°14'5 4.8
2017-Feb-22 20:33N 63°23' E 008°12'0 0.4
2017-Feb-22 19:33N 63°23' E 008°13'7 7.3
2017-Feb-22 18:33N 63°24' E 008°29'1212.2
2017-Feb-22 17:33N 63°28' E 008°55'1212.0
2017-Feb-22 16:33N 63°33' E 009°19'1211.8
2017-Feb-22 15:33N 63°44' E 009°32'1212.1
2017-Feb-22 14:33N 63°54' E 009°46'1110.8
2017-Feb-22 13:33N 64°04' E 009°54'1212.0
2017-Feb-22 12:33N 64°13' E 010°13'1111.5
2017-Feb-22 11:33N 64°23' E 010°25'1111.4
2017-Feb-22 10:33N 64°34' E 010°35'1212.0
2017-Feb-22 09:33N 64°43' E 010°54'1212.0
2017-Feb-22 08:33N 64°51' E 011°14'1211.7
2017-Feb-22 07:33N 64°59' E 011°35'1211.8
2017-Feb-22 06:33N 65°09' E 011°50'1211.8
2017-Feb-22 05:33N 65°20' E 012°01'9 9.1
2017-Feb-22 04:33N 65°29' E 011°57'1212.0
2017-Feb-22 03:33N 65°39' E 012°13'1212.2
2017-Feb-22 02:33N 65°50' E 012°22'1111.4
2017-Feb-22 01:33N 66°01' E 012°32'1212.2
2017-Feb-22 00:33N 66°11' E 012°50'1211.9
2017-Feb-21 23:33N 66°22' E 012°58'1110.8
2017-Feb-21 22:33N 66°33' E 013°01'1111.2
2017-Feb-21 21:33N 66°43' E 013°11'1111.3
2017-Feb-21 20:33N 66°53' E 013°24'1010.4
2017-Feb-21 19:33N 67°01' E 013°43'1111.4
2017-Feb-21 18:33N 67°09' E 014°02'1211.7
2017-Feb-21 17:33N 67°19' E 014°18'1110.9
2017-Feb-21 16:33N 67°30' E 014°23'1212.2
2017-Feb-21 15:33N 67°42' E 014°17'1211.8
2017-Feb-21 14:33N 67°53' E 014°29'1212.0
2017-Feb-21 13:33N 68°04' E 014°43'1212.3
2017-Feb-21 12:33N 68°15' E 014°57'1211.7
2017-Feb-21 11:33N 68°26' E 015°09'7 7.1
2017-Feb-21 10:33N 68°29' E 014°52'2 1.5
2017-Feb-21 09:32N 68°30' E 014°48'0 0.0
2017-Feb-21 08:33N 68°30' E 014°48'0 0.0
2017-Feb-21 07:33N 68°30' E 014°48'0 0.0
2017-Feb-21 06:33N 68°30' E 014°48'4 3.8
2017-Feb-21 05:32N 68°30' E 014°59'1212.1
2017-Feb-21 04:33N 68°38' E 015°22'1211.6
2017-Feb-21 03:33N 68°50' E 015°27'8 8.4
2017-Feb-21 02:33N 68°57' E 015°37'10 9.5
2017-Feb-21 01:33N 68°58' E 016°03'1211.7
2017-Feb-21 00:33N 68°52' E 016°32'1211.9
2017-Feb-20 23:33N 68°58' E 017°01'1211.9
2017-Feb-20 22:33N 69°06' E 017°26'1212.2
2017-Feb-20 21:33N 69°10' E 017°58'10 9.8
2017-Feb-20 20:33N 69°20' E 018°02'1110.7
2017-Feb-20 19:33N 69°30' E 018°15'1211.7
2017-Feb-20 18:33N 69°34' E 018°46'5 5.4
2017-Feb-20 17:33N 69°38' E 018°57'0 0.0
2017-Feb-20 16:33N 69°38' E 018°57'0 0.0
2017-Feb-20 15:33N 69°38' E 018°57'0 0.0
2017-Feb-20 14:33N 69°38' E 018°57'0 0.0
2017-Feb-20 13:33N 69°38' E 018°57'0 0.0
2017-Feb-20 12:33N 69°38' E 018°57'0 0.0
2017-Feb-20 11:33N 69°38' E 018°57'0 0.0
2017-Feb-20 10:33N 69°38' E 018°57'0 0.0
2017-Feb-20 09:33N 69°38' E 018°57'0 0.0
2017-Feb-20 08:33N 69°38' E 018°57'0 0.0
2017-Feb-20 07:33N 69°38' E 018°57'0 0.0
2017-Feb-20 06:33N 69°38' E 018°57'0 0.0
2017-Feb-20 05:33N 69°38' E 018°57'0 0.0
2017-Feb-20 04:33N 69°38' E 018°57'0 0.0
2017-Feb-20 03:33N 69°38' E 018°57'0 0.0
2017-Feb-20 02:33N 69°38' E 018°57'0 0.0
2017-Feb-20 01:33N 69°38' E 018°57'0 0.0
2017-Feb-20 00:33N 69°38' E 018°57'0 0.0
2017-Feb-19 23:33N 69°38' E 018°57'0 0.0
2017-Feb-19 22:33N 69°38' E 018°57'0 0.0
2017-Feb-19 21:33N 69°38' E 018°57'2 1.9
2017-Feb-19 20:33N 69°39' E 018°58'0 0.0
2017-Feb-19 19:33N 69°39' E 018°58'0 0.0
2017-Feb-19 18:33N 69°39' E 018°58'3 2.8
2017-Feb-19 17:33N 69°42' E 019°02'1010.3
2017-Feb-19 16:33N 69°49' E 019°25'1211.9
2017-Feb-19 15:33N 69°54' E 019°56'1111.5
2017-Feb-19 14:33N 70°00' E 020°23'1211.8
2017-Feb-19 13:33N 70°05' E 020°56'1211.6
2017-Feb-19 12:33N 70°15' E 021°12'1212.0
2017-Feb-19 11:33N 70°23' E 021°38'1212.1
2017-Feb-19 10:33N 70°27' E 022°13'1212.3
2017-Feb-19 09:33N 70°30' E 022°48'1211.7
2017-Feb-19 08:33N 70°37' E 023°16'1111.3
2017-Feb-19 07:33N 70°46' E 023°39'1211.5
2017-Feb-19 06:32N 70°54' E 024°04'1211.7
2017-Feb-19 05:33N 71°02' E 024°30'1211.5
2017-Feb-19 04:33N 70°60' E 025°04'1111.0
2017-Feb-19 03:33N 70°55' E 025°35'1212.2
2017-Feb-19 02:33N 70°58' E 026°12'1212.0
2017-Feb-19 01:33N 71°03' E 026°46'1111.5
2017-Feb-19 00:33N 71°07' E 027°19'1211.8
2017-Feb-18 23:33N 71°10' E 027°54'9 9.4
2017-Feb-18 22:33N 71°06' E 028°21'8 7.5
2017-Feb-18 21:33N 71°02' E 028°39'7 7.4
2017-Feb-18 20:33N 70°58' E 028°58'6 6.4
2017-Feb-18 19:33N 70°54' E 029°14'7 7.0
2017-Feb-18 18:33N 70°50' E 029°31'8 8.4
2017-Feb-18 17:33N 70°44' E 029°50'7 6.2
2017-Feb-18 16:30N 70°38' E 029°43'0 0.0
2017-Feb-18 15:31N 70°38' E 029°43'0 0.0
2017-Feb-18 14:31N 70°38' E 029°43'0 0.0
2017-Feb-18 13:32N 70°38' E 029°43'0 0.0
2017-Feb-18 12:33N 70°38' E 029°43'0 0.0
2017-Feb-18 11:33N 70°38' E 029°43'0 0.0
2017-Feb-18 10:28N 70°38' E 029°43'0 0.0
2017-Feb-18 09:29N 70°38' E 029°43'0 0.0
2017-Feb-18 08:29N 70°38' E 029°43'0 0.0
2017-Feb-18 07:30N 70°38' E 029°43'0 0.0
2017-Feb-18 06:31N 70°38' E 029°43'0 0.0
2017-Feb-18 05:31N 70°38' E 029°43'0 0.0
2017-Feb-18 04:32N 70°38' E 029°43'0 0.0
2017-Feb-18 03:33N 70°38' E 029°43'0 0.0
2017-Feb-18 02:33N 70°38' E 029°43'0 0.0
2017-Feb-18 01:28N 70°38' E 029°43'0 0.0
2017-Feb-18 00:29N 70°38' E 029°43'0 0.0
2017-Feb-17 23:29N 70°38' E 029°43'0 0.0
2017-Feb-17 22:33N 70°38' E 029°43'2 1.7
2017-Feb-17 21:33N 70°39' E 029°47'1110.6
2017-Feb-17 20:33N 70°49' E 029°37'1212.3
2017-Feb-17 19:33N 70°57' E 029°10'1212.4
2017-Feb-17 18:33N 71°04' E 028°38'1212.5
2017-Feb-17 17:33N 71°10' E 028°04'1212.1
2017-Feb-17 16:33N 71°10' E 027°26'1211.6
2017-Feb-17 15:33N 71°06' E 026°53'1211.7
2017-Feb-17 14:33N 71°01' E 026°21'1211.8
2017-Feb-17 13:33N 70°56' E 025°48'1111.1
2017-Feb-17 12:33N 70°59' E 025°16'1211.8
2017-Feb-17 11:33N 71°01' E 024°40'1111.0
2017-Feb-17 10:33N 70°55' E 024°12'1212.4
2017-Feb-17 09:33N 70°47' E 023°44'1211.9
2017-Feb-17 08:32N 70°38' E 023°18'1212.5
2017-Feb-17 07:33N 70°30' E 022°51'  

Dump ship's entire track history